createdAt,value
2018-02-10T00:03:56.342Z,36.33
2018-02-10T00:10:00.901Z,36.47
2018-02-10T00:16:06.259Z,38.10
2018-02-10T00:22:11.527Z,38.50
2018-02-10T00:28:16.171Z,35.47
2018-02-10T00:34:20.984Z,36.93
2018-02-10T00:40:26.267Z,34.70
2018-02-10T00:46:31.518Z,31.40
2018-02-10T00:52:36.059Z,34.00
2018-02-10T00:58:40.707Z,34.03
2018-02-10T01:04:45.970Z,33.27
2018-02-10T01:10:51.007Z,32.30
2018-02-10T01:16:55.572Z,32.07
2018-02-10T01:23:00.225Z,35.10
2018-02-10T01:29:04.786Z,31.67
2018-02-10T01:35:09.380Z,29.50
2018-02-10T01:41:13.910Z,29.80
2018-02-10T01:47:18.528Z,29.17
2018-02-10T01:53:23.420Z,29.17
2018-02-10T01:59:28.127Z,31.23
2018-02-10T02:05:32.654Z,30.37
2018-02-10T02:11:37.153Z,28.10
2018-02-10T02:17:41.701Z,29.20
2018-02-10T02:23:47.811Z,28.30
2018-02-10T02:29:53.281Z,30.70
2018-02-10T02:35:57.842Z,29.37
2018-02-10T02:42:02.436Z,32.37
2018-02-10T02:48:06.980Z,30.37
2018-02-10T02:54:11.531Z,32.53
2018-02-10T03:00:17.064Z,31.63
2018-02-10T03:06:21.651Z,30.50
2018-02-10T03:12:26.236Z,31.60
2018-02-10T03:18:30.804Z,33.60
2018-02-10T03:24:35.277Z,31.90
2018-02-10T03:30:39.827Z,30.40
2018-02-10T03:36:44.467Z,32.90
2018-02-10T03:42:49.981Z,29.63
2018-02-10T03:48:54.987Z,31.63
2018-02-10T03:54:59.512Z,32.20
2018-02-10T04:01:04.020Z,28.37
2018-02-10T04:07:08.519Z,32.03
2018-02-10T04:13:13.202Z,31.00
2018-02-10T04:19:17.736Z,30.90
2018-02-10T04:25:22.705Z,30.07
2018-02-10T04:31:27.279Z,32.00
2018-02-10T04:37:31.905Z,31.70
2018-02-10T04:43:37.359Z,30.50
2018-02-10T04:49:42.058Z,27.93
2018-02-10T04:55:46.609Z,29.53
2018-02-10T05:01:51.602Z,30.00
2018-02-10T05:07:56.083Z,28.87
2018-02-10T05:14:00.800Z,30.50
2018-02-10T05:20:05.272Z,28.97
2018-02-10T05:26:10.792Z,30.27
2018-02-10T05:32:15.347Z,27.70
2018-02-10T05:38:20.586Z,30.70
2018-02-10T05:44:25.455Z,30.80
2018-02-10T05:50:30.287Z,31.80
2018-02-10T05:56:35.035Z,33.40
2018-02-10T06:02:40.286Z,34.50
2018-02-10T06:08:44.800Z,33.23
2018-02-10T06:14:49.465Z,31.70
2018-02-10T06:20:55.804Z,33.27
2018-02-10T06:27:01.196Z,29.87
2018-02-10T06:33:05.755Z,32.40
2018-02-10T06:39:10.225Z,30.77
2018-02-10T06:45:14.727Z,32.47
2018-02-10T06:51:19.374Z,30.83
2018-02-10T06:57:24.226Z,30.70
2018-02-10T07:03:28.844Z,31.10
2018-02-10T07:09:33.328Z,31.40
2018-02-10T07:15:37.811Z,31.00
2018-02-10T07:21:42.319Z,30.10
2018-02-10T07:27:46.960Z,29.00
2018-02-10T07:33:52.771Z,30.63
2018-02-10T07:39:57.301Z,31.10
2018-02-10T07:46:02.870Z,34.30
2018-02-10T07:52:07.361Z,31.80
2018-02-10T07:58:12.624Z,32.50
2018-02-10T08:04:17.438Z,31.63
2018-02-10T08:10:22.053Z,30.47
2018-02-10T08:16:27.322Z,31.70
2018-02-10T08:22:31.975Z,30.73
2018-02-10T08:28:36.499Z,30.97
2018-02-10T08:34:41.156Z,31.27
2018-02-10T08:40:45.739Z,30.13
2018-02-10T08:46:51.024Z,31.17
2018-02-10T08:52:55.648Z,30.83
2018-02-10T08:59:00.121Z,30.10
2018-02-10T09:05:05.354Z,30.67
2018-02-10T09:11:09.846Z,29.30
2018-02-10T09:17:14.517Z,30.87
2018-02-10T09:23:19.925Z,29.20
2018-02-10T09:29:25.026Z,29.33
2018-02-10T09:35:29.499Z,31.27
2018-02-10T09:41:34.164Z,28.60
2018-02-10T09:47:38.680Z,28.30
2018-02-10T09:53:43.306Z,31.37
2018-02-10T09:59:48.530Z,31.90
2018-02-10T10:05:53.087Z,28.50
2018-02-10T10:11:57.547Z,31.47
2018-02-10T10:18:02.057Z,31.30
2018-02-10T10:24:06.776Z,30.97
2018-02-10T10:30:11.422Z,30.17
2018-02-10T10:36:15.991Z,31.83
2018-02-10T10:42:21.077Z,31.70
2018-02-10T10:48:25.687Z,30.60
2018-02-10T10:54:30.178Z,32.00
2018-02-10T11:00:35.444Z,31.77
2018-02-10T11:06:39.955Z,32.23
2018-02-10T11:12:44.485Z,33.17
2018-02-10T11:18:48.988Z,34.10
2018-02-10T11:24:53.510Z,34.00
2018-02-10T11:30:58.085Z,32.03
2018-02-10T11:37:03.394Z,33.40
2018-02-10T11:43:07.918Z,34.20
2018-02-10T11:49:12.361Z,35.07
2018-02-10T11:55:16.856Z,36.13
2018-02-10T12:01:21.480Z,35.87
2018-02-10T12:07:26.012Z,34.90
2018-02-10T12:13:30.501Z,38.23
2018-02-10T12:19:34.975Z,34.07
2018-02-10T12:25:39.502Z,33.10
2018-02-10T12:31:44.745Z,33.97
2018-02-10T12:37:49.282Z,35.43
2018-02-10T12:43:53.790Z,33.40
2018-02-10T12:49:58.280Z,35.53
2018-02-10T12:56:02.854Z,35.37
2018-02-10T13:02:07.344Z,35.10
2018-02-10T13:08:11.868Z,38.10
2018-02-10T13:14:17.118Z,35.10
2018-02-10T13:20:22.568Z,36.70
2018-02-10T13:26:27.854Z,34.50
2018-02-10T13:32:33.313Z,37.13
2018-02-10T13:38:37.946Z,36.60
2018-02-10T13:44:43.171Z,36.73
2018-02-10T13:50:47.656Z,36.83
2018-02-10T13:56:52.243Z,35.80
2018-02-10T14:02:56.714Z,34.90
2018-02-10T14:09:01.209Z,34.80
2018-02-10T14:15:05.735Z,33.50
2018-02-10T14:21:10.242Z,36.87
2018-02-10T14:27:14.809Z,36.33
2018-02-10T14:33:19.284Z,35.13
2018-02-10T14:39:23.843Z,32.73
2018-02-10T14:45:29.078Z,42.87
2018-02-10T14:51:33.552Z,33.50
2018-02-10T14:57:38.150Z,32.97
2018-02-10T15:03:42.645Z,32.90
2018-02-10T15:09:47.120Z,33.17
2018-02-10T15:15:51.807Z,33.20
2018-02-10T15:21:56.379Z,37.17
2018-02-10T15:28:00.937Z,34.83
2018-02-10T15:40:54.567Z,35.27
2018-02-10T15:47:00.030Z,35.00
2018-02-10T15:53:04.643Z,33.47
2018-02-10T15:59:09.958Z,34.40
2018-02-10T16:05:14.767Z,34.77
2018-02-10T16:11:19.334Z,32.27
2018-02-10T16:17:23.862Z,31.97
2018-02-10T16:23:28.541Z,30.20
2018-02-10T16:29:33.081Z,32.37
2018-02-10T16:35:37.595Z,25.33
2018-02-10T16:41:42.498Z,30.00
2018-02-10T16:47:47.819Z,29.67
2018-02-10T16:53:52.470Z,28.30
2018-02-10T16:59:57.020Z,27.43
2018-02-10T17:06:01.559Z,27.53
2018-02-10T17:12:06.102Z,30.03
2018-02-10T17:18:10.762Z,28.50
2018-02-10T17:24:15.434Z,29.80
2018-02-10T17:30:20.719Z,28.00
2018-02-10T17:36:26.396Z,27.20
2018-02-10T17:42:31.188Z,27.00
2018-02-10T17:48:35.955Z,32.00
2018-02-10T17:54:41.220Z,34.40
2018-02-10T18:00:45.744Z,29.00
2018-02-10T18:06:51.170Z,25.07
2018-02-10T18:12:55.697Z,25.73
2018-02-10T18:19:00.971Z,25.67
2018-02-10T18:25:05.466Z,35.33
2018-02-10T18:31:10.010Z,26.00
2018-02-10T18:37:14.522Z,26.00
2018-02-10T18:43:19.823Z,23.10
2018-02-10T18:49:24.643Z,26.07
2018-02-10T18:55:29.163Z,25.10
2018-02-10T19:01:33.692Z,24.03
2018-02-10T19:07:38.455Z,23.37
2018-02-10T19:13:43.741Z,25.50
2018-02-10T19:19:48.288Z,22.83
2018-02-10T19:25:52.859Z,27.57
2018-02-10T19:31:57.393Z,24.83
2018-02-10T19:38:02.747Z,22.37
2018-02-10T19:44:07.242Z,24.33
2018-02-10T19:50:11.753Z,22.47
2018-02-10T19:56:17.211Z,23.70
2018-02-10T20:02:22.170Z,20.90
2018-02-10T20:08:26.783Z,22.60
2018-02-10T20:14:31.302Z,21.40
2018-02-10T20:20:35.817Z,19.90
2018-02-10T20:26:40.351Z,21.43
2018-02-10T20:32:44.881Z,21.63
2018-02-10T20:38:50.180Z,21.17
2018-02-10T20:44:54.936Z,20.27
2018-02-10T20:50:59.499Z,21.33
2018-02-10T20:57:04.413Z,20.60
2018-02-10T21:03:08.961Z,18.30
2018-02-10T21:09:14.263Z,19.00
2018-02-10T21:15:18.767Z,21.27
2018-02-10T21:21:25.177Z,22.33
2018-02-10T21:27:30.539Z,20.07
2018-02-10T21:33:35.958Z,20.60
2018-02-10T21:39:40.469Z,21.17
2018-02-10T21:45:44.991Z,21.10
2018-02-10T21:51:50.318Z,20.10
2018-02-10T21:57:54.826Z,19.73
2018-02-10T22:03:59.382Z,21.47
2018-02-10T22:10:04.786Z,19.07
2018-02-10T22:16:09.392Z,19.53
2018-02-10T22:22:13.887Z,20.60
2018-02-10T22:28:18.584Z,21.17
2018-02-10T22:34:23.169Z,19.30
2018-02-10T22:40:28.463Z,19.63
2018-02-10T22:46:33.773Z,20.50
2018-02-10T22:52:38.302Z,20.40
2018-02-10T22:58:42.787Z,17.17
2018-02-10T23:04:48.241Z,19.83
2018-02-10T23:10:52.890Z,19.73
2018-02-10T23:16:58.289Z,22.57
2018-02-10T23:23:03.555Z,22.73
2018-02-10T23:29:08.074Z,22.00
2018-02-10T23:35:12.710Z,21.87
2018-02-10T23:41:18.347Z,21.50
2018-02-10T23:47:23.241Z,20.27
2018-02-10T23:53:28.009Z,20.10
2018-02-10T23:59:33.399Z,19.03
